Time;durP1;ratioP1;P1;durP2;ratioP2;P2;SDS_P1;SDS_P2;PMS_P1;PMS_P2;Temp;Humidity;BMP_temperature;BMP_pressure;BME280_temperature;BME280_humidity;BME280_pressure;Samples;Min_cycle;Max_cycle;Signal;HPM_P1;HPM_P2
2024/01/25 00:01:43;;;;;;;18.15;12.43;;;;;;;4.69;100.00;99168.78;5005639;28;20049;-76
2024/01/25 00:04:08;;;;;;;17.33;11.23;;;;;;;4.82;100.00;99177.44;5016704;28;20037;-76
2024/01/25 00:06:34;;;;;;;18.60;11.23;;;;;;;4.92;100.00;99168.22;4993403;28;20032;-76
2024/01/25 00:09:00;;;;;;;15.68;11.15;;;;;;;5.10;100.00;99179.13;5016903;28;20052;-76
2024/01/25 00:11:26;;;;;;;19.05;12.35;;;;;;;5.27;100.00;99184.97;5015393;28;20060;-74
2024/01/25 00:13:51;;;;;;;17.38;12.07;;;;;;;5.34;100.00;99163.84;5018439;28;20216;-75
2024/01/25 00:16:17;;;;;;;19.02;11.52;;;;;;;5.33;100.00;99182.84;5017565;28;20128;-76
2024/01/25 00:18:45;;;;;;;18.40;11.80;;;;;;;5.29;100.00;99163.31;5023238;28;20052;-74
2024/01/25 00:21:10;;;;;;;18.65;10.52;;;;;;;5.32;100.00;99162.31;5032198;28;20921;-75
2024/01/25 00:23:40;;;;;;;16.23;11.07;;;;;;;5.50;100.00;99168.03;5009909;28;20017;-76
2024/01/25 00:26:10;;;;;;;17.77;11.48;;;;;;;5.48;100.00;99162.97;5030346;28;20095;-76
2024/01/25 00:28:36;;;;;;;15.93;10.15;;;;;;;5.49;100.00;99159.44;4996503;28;20036;-76
2024/01/25 00:31:01;;;;;;;14.70;10.15;;;;;;;5.50;100.00;99171.44;5017212;28;20025;-76
2024/01/25 00:33:26;;;;;;;17.55;10.13;;;;;;;5.53;100.00;99153.19;5000169;28;20980;-75
2024/01/25 00:35:55;;;;;;;16.95;10.45;;;;;;;5.57;100.00;99159.81;5017261;28;20033;-77
2024/01/25 00:38:21;;;;;;;15.90;10.73;;;;;;;5.49;100.00;99156.88;5018392;28;20507;-75
2024/01/25 00:40:49;;;;;;;14.43;10.07;;;;;;;5.44;100.00;99156.38;5010161;28;20049;-75
2024/01/25 00:43:14;;;;;;;15.68;10.93;;;;;;;5.41;100.00;99146.25;5043076;28;20099;-76
2024/01/25 00:45:40;;;;;;;16.13;11.10;;;;;;;5.46;100.00;99145.94;4995984;28;20168;-77
2024/01/25 00:48:06;;;;;;;15.63;10.32;;;;;;;5.29;100.00;99134.13;5013008;28;20021;-76
2024/01/25 00:50:34;;;;;;;14.85;9.85;;;;;;;5.33;100.00;99140.72;4998317;28;20034;-77
2024/01/25 00:53:02;;;;;;;15.63;10.15;;;;;;;5.44;100.00;99142.63;4998126;28;20660;-75
2024/01/25 00:55:28;;;;;;;15.65;10.38;;;;;;;5.47;100.00;99150.16;5012809;28;20036;-76
2024/01/25 00:57:56;;;;;;;15.18;10.52;;;;;;;5.41;100.00;99135.09;4996135;28;20099;-76
2024/01/25 01:00:24;;;;;;;14.40;10.18;;;;;;;5.48;100.00;99133.78;5013919;28;20041;-76
2024/01/25 01:02:53;;;;;;;16.83;10.35;;;;;;;5.46;100.00;99154.50;5015057;28;20030;-76
2024/01/25 01:05:21;;;;;;;19.80;10.75;;;;;;;5.32;100.00;99163.13;5010105;28;20025;-76
2024/01/25 01:07:46;;;;;;;17.98;10.38;;;;;;;5.31;100.00;99164.06;5013104;28;20026;-75
2024/01/25 01:10:14;;;;;;;14.30;9.95;;;;;;;5.36;100.00;99151.69;5013891;28;21092;-75
2024/01/25 01:12:39;;;;;;;15.75;10.25;;;;;;;5.45;100.00;99157.19;4990359;28;20690;-77
2024/01/25 01:15:07;;;;;;;14.48;9.43;;;;;;;5.50;100.00;99155.16;5039525;28;20045;-75
2024/01/25 01:17:35;;;;;;;14.38;9.60;;;;;;;5.42;100.00;99147.91;5017667;28;20041;-76
2024/01/25 01:20:00;;;;;;;14.48;9.80;;;;;;;5.45;100.00;99147.69;5018246;28;20381;-76
2024/01/25 01:22:26;;;;;;;15.20;9.77;;;;;;;5.46;100.00;99154.50;5008746;28;20036;-75
2024/01/25 01:24:53;;;;;;;13.10;9.73;;;;;;;5.26;100.00;99109.38;4993604;28;21197;-75
2024/01/25 01:27:21;;;;;;;15.77;10.70;;;;;;;5.48;100.00;99147.50;5042148;28;20179;-75
2024/01/25 01:29:47;;;;;;;15.20;10.20;;;;;;;5.13;100.00;99114.50;5023615;28;20072;-77
2024/01/25 01:32:12;;;;;;;14.13;10.25;;;;;;;5.36;100.00;99150.88;5011106;28;20164;-74
2024/01/25 01:34:38;;;;;;;16.17;10.30;;;;;;;5.49;100.00;99150.91;5016158;28;20478;-75
2024/01/25 01:37:03;;;;;;;15.25;10.30;;;;;;;5.51;100.00;99151.63;5010604;28;20032;-76
2024/01/25 01:39:28;;;;;;;15.38;10.43;;;;;;;5.50;100.00;99157.72;5012678;28;20049;-76
2024/01/25 01:41:54;;;;;;;17.35;10.60;;;;;;;5.42;100.00;99157.38;4994584;28;20029;-76
2024/01/25 01:44:21;;;;;;;15.90;10.60;;;;;;;5.09;100.00;99092.41;4996570;28;20034;-75
2024/01/25 01:46:47;;;;;;;14.55;10.13;;;;;;;5.13;100.00;99104.19;4997272;28;20034;-76
2024/01/25 01:49:14;;;;;;;17.30;10.35;;;;;;;5.56;100.00;99159.91;4996768;28;20458;-76
2024/01/25 01:51:42;;;;;;;16.05;10.25;;;;;;;5.62;100.00;99156.91;5009354;28;20057;-75
2024/01/25 01:54:08;;;;;;;16.25;10.63;;;;;;;5.53;100.00;99158.34;5017751;28;20025;-75
2024/01/25 01:56:34;;;;;;;16.88;10.65;;;;;;;5.47;100.00;99166.47;5011512;28;20106;-75
2024/01/25 01:59:04;;;;;;;17.38;10.30;;;;;;;5.53;100.00;99150.63;5003447;28;20033;-76
2024/01/25 02:01:33;;;;;;;16.20;10.70;;;;;;;5.48;100.00;99162.97;5047854;28;20044;-75
2024/01/25 02:03:58;;;;;;;16.25;10.90;;;;;;;5.52;100.00;99153.28;4987673;28;21011;-74
2024/01/25 02:06:29;;;;;;;16.85;11.13;;;;;;;5.44;100.00;99143.47;4998486;28;20111;-75
2024/01/25 02:09:00;;;;;;;16.95;11.55;;;;;;;5.14;100.00;99098.09;5010241;28;20071;-76
2024/01/25 02:11:28;;;;;;;14.52;10.80;;;;;;;5.43;100.00;99144.38;5014671;28;20059;-76
2024/01/25 02:13:58;;;;;;;17.13;12.10;;;;;;;5.44;100.00;99132.31;4995204;28;20117;-76
2024/01/25 02:16:26;;;;;;;17.10;11.50;;;;;;;5.41;100.00;99148.00;5010482;28;20048;-75
2024/01/25 02:18:57;;;;;;;18.58;11.43;;;;;;;5.47;100.00;99148.41;5008917;28;20029;-74
2024/01/25 02:21:24;;;;;;;16.67;11.10;;;;;;;5.41;100.00;99153.16;5012271;28;20029;-74
2024/01/25 02:23:52;;;;;;;17.17;11.05;;;;;;;5.28;100.00;99109.28;4993483;28;20033;-75
2024/01/25 02:26:20;;;;;;;15.63;10.93;;;;;;;5.61;100.00;99142.38;4997481;28;20027;-75
2024/01/25 02:28:48;;;;;;;18.10;12.30;;;;;;;5.50;100.00;99130.16;5018814;28;20034;-74
2024/01/25 02:31:13;;;;;;;15.23;9.85;;;;;;;5.51;100.00;99134.41;5013292;28;20113;-75
2024/01/25 02:33:39;;;;;;;17.27;11.85;;;;;;;5.46;100.00;99125.28;5011030;28;20029;-75
2024/01/25 02:36:05;;;;;;;18.52;11.38;;;;;;;5.50;100.00;99134.50;4999367;28;20031;-74
2024/01/25 02:38:30;;;;;;;16.45;11.80;;;;;;;5.54;100.00;99136.78;5014872;28;20144;-76
2024/01/25 02:40:58;;;;;;;16.63;12.18;;;;;;;5.41;100.00;99132.53;4997457;28;20037;-74
2024/01/25 02:43:23;;;;;;;19.08;12.02;;;;;;;5.15;100.00;99091.19;5014347;28;20051;-75
2024/01/25 02:45:49;;;;;;;18.45;12.65;;;;;;;5.34;100.00;99137.25;4998533;28;20021;-75
2024/01/25 02:48:15;;;;;;;16.67;12.27;;;;;;;5.36;100.00;99130.22;5016491;28;20064;-75
2024/01/25 02:50:43;;;;;;;18.05;12.57;;;;;;;5.52;100.00;99123.16;5000640;28;20041;-75
2024/01/25 02:53:08;;;;;;;16.45;12.57;;;;;;;5.49;100.00;99118.19;5011281;28;20048;-74
2024/01/25 02:55:33;;;;;;;18.65;11.70;;;;;;;5.23;100.00;99046.88;4993617;28;20256;-74
2024/01/25 02:57:59;;;;;;;18.27;12.57;;;;;;;5.50;100.00;99119.84;5009458;28;20498;-74
2024/01/25 03:00:24;;;;;;;18.42;12.55;;;;;;;5.47;100.00;99119.22;4991636;28;20136;-73
2024/01/25 03:02:54;;;;;;;16.95;11.95;;;;;;;5.41;100.00;99111.91;4994413;28;21464;-73
2024/01/25 03:05:22;;;;;;;17.52;12.07;;;;;;;5.43;100.00;99113.44;4996114;28;20029;-75
2024/01/25 03:07:47;;;;;;;17.15;11.75;;;;;;;5.48;100.00;99113.16;5010050;28;20018;-75
2024/01/25 03:10:15;;;;;;;17.52;11.40;;;;;;;5.51;100.00;99111.19;5009585;28;20029;-74
2024/01/25 03:12:44;;;;;;;16.67;11.43;;;;;;;5.50;100.00;99112.13;5013151;28;20037;-75
2024/01/25 03:15:13;;;;;;;16.60;12.00;;;;;;;5.43;100.00;99118.59;4990995;28;20132;-73
2024/01/25 03:17:38;;;;;;;16.05;11.57;;;;;;;5.15;100.00;99058.50;5015983;28;20060;-74
2024/01/25 03:20:04;;;;;;;15.85;11.40;;;;;;;5.12;100.00;99063.03;4996309;28;21355;-76
2024/01/25 03:22:29;;;;;;;14.98;10.68;;;;;;;5.31;100.00;99111.66;5003730;28;20035;-75
2024/01/25 03:24:57;;;;;;;14.75;11.30;;;;;;;5.27;100.00;99100.69;5011140;28;20021;-74
2024/01/25 03:27:25;;;;;;;16.25;10.95;;;;;;;5.23;100.00;99106.16;4991265;28;20026;-75
2024/01/25 03:29:50;;;;;;;15.90;11.55;;;;;;;5.25;100.00;99088.84;5033501;28;20036;-74
2024/01/25 03:32:18;;;;;;;16.98;11.93;;;;;;;5.39;100.00;99099.91;4995947;28;20045;-76
2024/01/25 03:34:45;;;;;;;15.25;11.02;;;;;;;5.42;100.00;99098.06;5019044;28;20025;-75
2024/01/25 03:37:11;;;;;;;15.02;10.98;;;;;;;5.37;100.00;99096.63;5009374;28;20052;-76
2024/01/25 03:39:36;;;;;;;15.80;11.13;;;;;;;5.40;100.00;99098.16;5007046;28;20858;-74
2024/01/25 03:42:04;;;;;;;16.98;11.45;;;;;;;5.43;100.00;99090.22;5023461;28;20124;-75
2024/01/25 03:44:29;;;;;;;18.20;12.32;;;;;;;5.60;100.00;99086.53;4992391;28;20022;-74
2024/01/25 03:46:57;;;;;;;15.02;10.63;;;;;;;5.58;100.00;99102.13;5014800;28;20483;-75
2024/01/25 03:49:22;;;;;;;15.82;12.07;;;;;;;5.49;100.00;99104.47;5015261;28;20071;-76
2024/01/25 03:51:48;;;;;;;14.60;10.50;;;;;;;5.43;100.00;99087.66;5011209;28;20112;-76
2024/01/25 03:54:16;;;;;;;16.58;10.80;;;;;;;5.47;100.00;99104.56;5008875;28;20111;-75
2024/01/25 03:56:44;;;;;;;15.52;11.05;;;;;;;5.52;100.00;99110.25;5013554;28;20029;-75
2024/01/25 03:59:12;;;;;;;15.52;10.50;;;;;;;5.47;100.00;99099.41;5018091;28;20097;-74
2024/01/25 04:01:44;;;;;;;16.55;10.30;;;;;;;5.32;100.00;99092.69;5010134;28;20041;-74
2024/01/25 04:04:15;;;;;;;16.27;10.82;;;;;;;5.34;100.00;99103.72;4997819;28;20112;-76
2024/01/25 04:06:42;;;;;;;13.82;10.23;;;;;;;5.09;100.00;99063.22;5032331;28;20660;-74
2024/01/25 04:09:10;;;;;;;16.15;10.52;;;;;;;5.30;100.00;99097.94;4999213;28;20064;-76
2024/01/25 04:11:37;;;;;;;14.70;10.13;;;;;;;5.21;100.00;99106.25;5023152;28;20108;-75
2024/01/25 04:14:05;;;;;;;16.20;10.52;;;;;;;5.13;100.00;99096.44;5010530;28;20087;-75
2024/01/25 04:16:32;;;;;;;16.67;10.73;;;;;;;5.22;100.00;99094.19;5015817;28;20053;-74
2024/01/25 04:18:57;;;;;;;15.27;10.48;;;;;;;5.07;100.00;99093.44;4996708;28;20037;-74
2024/01/25 04:21:25;;;;;;;16.40;12.00;;;;;;;5.00;100.00;99108.44;5016188;28;20792;-74
2024/01/25 04:23:52;;;;;;;16.25;11.30;;;;;;;4.72;100.00;99063.81;5012513;28;20024;-76
2024/01/25 04:26:18;;;;;;;18.35;11.63;;;;;;;4.88;100.00;99104.09;5012551;28;20041;-73
2024/01/25 04:28:43;;;;;;;16.10;11.38;;;;;;;4.66;100.00;99059.06;5010620;28;20107;-77
2024/01/25 04:31:11;;;;;;;19.50;12.18;;;;;;;4.73;100.00;99103.31;4991765;28;20042;-74
2024/01/25 04:33:40;;;;;;;19.67;12.63;;;;;;;4.63;100.00;99092.72;4999820;28;20084;-76
2024/01/25 04:36:06;;;;;;;17.73;12.63;;;;;;;4.66;100.00;99100.28;5013586;28;21187;-76
2024/01/25 04:38:34;;;;;;;18.48;12.20;;;;;;;4.47;100.00;99099.75;4999049;28;20041;-75
2024/01/25 04:41:02;;;;;;;17.77;12.13;;;;;;;4.58;100.00;99105.91;5009892;28;20029;-75
2024/01/25 04:43:27;;;;;;;17.35;11.63;;;;;;;4.34;100.00;99079.88;4997776;28;20476;-75
2024/01/25 04:45:55;;;;;;;13.18;9.05;;;;;;;4.31;100.00;99045.78;5000003;28;20040;-75
2024/01/25 04:48:23;;;;;;;13.95;9.43;;;;;;;4.43;100.00;99045.88;5014773;28;20124;-75
2024/01/25 04:50:48;;;;;;;12.35;8.45;;;;;;;4.59;100.00;99035.41;5012318;28;20022;-77
2024/01/25 04:53:13;;;;;;;13.05;8.48;;;;;;;5.00;100.00;99098.13;5009003;28;20577;-75
2024/01/25 04:55:39;;;;;;;12.52;8.38;;;;;;;5.00;100.00;99087.81;5026186;28;20039;-75
2024/01/25 04:58:04;;;;;;;11.77;8.35;;;;;;;5.13;100.00;99087.88;5019325;28;20029;-76
2024/01/25 05:00:33;;;;;;;11.73;8.40;;;;;;;5.25;100.00;99094.00;5043766;28;20472;-75
2024/01/25 05:02:59;;;;;;;11.57;8.30;;;;;;;5.18;100.00;99084.09;4992809;28;20098;-75
2024/01/25 05:05:24;;;;;;;12.50;7.75;;;;;;;5.25;100.00;99088.84;4993008;28;20075;-75
2024/01/25 05:07:49;;;;;;;11.73;8.77;;;;;;;5.37;100.00;99088.88;4995181;28;20025;-74
2024/01/25 05:10:15;;;;;;;11.80;8.60;;;;;;;5.29;100.00;99087.72;5012274;28;20021;-75
2024/01/25 05:12:40;;;;;;;13.98;8.75;;;;;;;5.28;100.00;99086.06;5013413;28;20057;-75
2024/01/25 05:15:06;;;;;;;15.50;8.73;;;;;;;5.31;100.00;99091.88;5011196;28;20030;-74
2024/01/25 05:17:34;;;;;;;15.05;8.43;;;;;;;5.38;100.00;99092.28;5011772;28;20034;-75
2024/01/25 05:19:59;;;;;;;11.93;8.20;;;;;;;5.35;100.00;99095.88;5017142;28;20021;-74
2024/01/25 05:22:27;;;;;;;12.70;8.00;;;;;;;5.39;100.00;99081.03;5026391;28;20135;-74
2024/01/25 05:24:55;;;;;;;12.52;8.23;;;;;;;5.36;100.00;99084.63;5013172;28;20188;-74
2024/01/25 05:27:20;;;;;;;13.25;8.35;;;;;;;5.33;100.00;99089.16;5012531;28;21275;-74
2024/01/25 05:29:48;;;;;;;12.15;8.10;;;;;;;5.36;100.00;99084.63;5029235;28;20026;-75
2024/01/25 05:32:13;;;;;;;11.73;7.93;;;;;;;5.09;100.00;99087.28;5024146;28;20093;-75
2024/01/25 05:34:43;;;;;;;12.15;8.55;;;;;;;5.13;100.00;99093.03;5010945;28;20027;-74
2024/01/25 05:37:09;;;;;;;13.38;9.32;;;;;;;4.93;100.00;99055.66;4992032;28;20021;-73
2024/01/25 05:39:34;;;;;;;14.10;8.75;;;;;;;5.09;100.00;99091.56;5003365;28;20053;-75
2024/01/25 05:41:59;;;;;;;13.00;8.20;;;;;;;5.09;100.00;99091.56;5009495;28;20033;-74
2024/01/25 05:44:25;;;;;;;15.00;9.40;;;;;;;4.87;100.00;99066.34;5016408;28;20161;-74
2024/01/25 05:46:52;;;;;;;12.82;8.48;;;;;;;5.17;100.00;99102.25;5044680;28;20053;-75
2024/01/25 05:49:18;;;;;;;14.65;9.15;;;;;;;5.16;100.00;99101.38;4998746;28;20739;-74
2024/01/25 05:51:43;;;;;;;12.57;8.80;;;;;;;5.01;100.00;99063.72;5001231;28;20035;-76
2024/01/25 05:54:08;;;;;;;15.35;9.13;;;;;;;5.25;100.00;99099.16;5012935;28;20048;-75
2024/01/25 05:56:39;;;;;;;12.35;8.60;;;;;;;5.32;100.00;99105.56;5009860;28;20036;-75
2024/01/25 05:59:06;;;;;;;12.98;8.35;;;;;;;5.36;100.00;99112.19;5044046;28;20083;-75
2024/01/25 06:01:32;;;;;;;13.75;8.82;;;;;;;5.28;100.00;99109.28;5035330;28;20049;-73
2024/01/25 06:03:59;;;;;;;12.98;8.63;;;;;;;4.90;100.00;99059.25;5037067;28;20124;-75
2024/01/25 06:06:25;;;;;;;12.52;8.73;;;;;;;5.24;100.00;99115.53;4995302;28;20034;-74
2024/01/25 06:08:50;;;;;;;13.63;8.82;;;;;;;5.15;100.00;99102.34;4999403;28;20021;-75
2024/01/25 06:11:15;;;;;;;16.23;8.80;;;;;;;5.14;100.00;99102.41;5014883;28;20849;-75
2024/01/25 06:13:44;;;;;;;12.95;8.48;;;;;;;5.22;100.00;99105.34;4998797;28;20118;-75
2024/01/25 06:16:10;;;;;;;13.85;9.15;;;;;;;5.31;100.00;99114.22;4994116;28;20436;-76
2024/01/25 06:18:37;;;;;;;12.77;8.55;;;;;;;5.33;100.00;99118.38;5032006;28;20029;-75
2024/01/25 06:21:03;;;;;;;12.88;8.57;;;;;;;5.13;100.00;99082.72;5018251;28;20497;-75
2024/01/25 06:23:30;;;;;;;11.65;8.13;;;;;;;5.35;100.00;99131.19;5007468;28;20098;-74
2024/01/25 06:25:58;;;;;;;14.15;9.05;;;;;;;5.33;100.00;99128.69;5001847;28;20643;-76
2024/01/25 06:28:24;;;;;;;12.63;8.68;;;;;;;5.35;100.00;99132.00;5023991;28;20092;-75
2024/01/25 06:30:52;;;;;;;13.02;8.75;;;;;;;5.37;100.00;99131.91;5017672;28;20083;-73
2024/01/25 06:33:17;;;;;;;12.18;8.15;;;;;;;5.18;100.00;99143.38;5015724;28;21681;-75
2024/01/25 06:35:43;;;;;;;11.93;8.13;;;;;;;5.22;100.00;99148.34;5006768;28;20025;-74
2024/01/25 06:38:08;;;;;;;12.15;8.23;;;;;;;4.81;100.00;99099.31;5020577;28;20056;-75
2024/01/25 06:40:36;;;;;;;12.25;8.98;;;;;;;5.02;100.00;99140.13;5025720;28;20033;-74
2024/01/25 06:43:01;;;;;;;14.30;9.18;;;;;;;4.91;100.00;99145.94;5010058;28;20151;-75
2024/01/25 06:45:27;;;;;;;12.10;8.25;;;;;;;5.00;100.00;99144.53;5011834;28;20416;-74
2024/01/25 06:47:53;;;;;;;15.00;9.25;;;;;;;4.97;100.00;99145.56;5006928;28;20100;-75
2024/01/25 06:50:18;;;;;;;14.13;8.50;;;;;;;5.06;100.00;99157.06;5023689;28;20701;-75
2024/01/25 06:52:49;;;;;;;13.80;8.60;;;;;;;5.10;100.00;99166.22;5009495;28;20949;-74
2024/01/25 06:55:22;;;;;;;14.23;9.68;;;;;;;5.00;100.00;99158.25;5013835;28;20343;-75
2024/01/25 06:57:47;;;;;;;13.43;8.60;;;;;;;4.91;100.00;99164.00;4999058;28;20030;-74
2024/01/25 07:00:15;;;;;;;13.40;8.98;;;;;;;4.68;100.00;99149.13;5018809;28;20032;-75
2024/01/25 07:02:44;;;;;;;13.30;8.73;;;;;;;4.77;100.00;99171.75;5037815;28;20033;-74
2024/01/25 07:05:10;;;;;;;13.57;9.25;;;;;;;4.76;100.00;99162.34;4992704;28;20030;-75
2024/01/25 07:07:38;;;;;;;14.30;10.13;;;;;;;4.49;100.00;99163.13;5013936;28;20037;-73
2024/01/25 07:10:05;;;;;;;18.55;10.90;;;;;;;4.49;100.00;99173.44;4993224;28;20099;-75
2024/01/25 07:12:33;;;;;;;16.98;11.45;;;;;;;4.37;100.00;99162.09;5024154;28;20030;-75
2024/01/25 07:14:58;;;;;;;18.13;11.98;;;;;;;4.40;100.00;99169.66;5007412;28;20056;-74
2024/01/25 07:17:24;;;;;;;21.33;12.68;;;;;;;4.10;100.00;99112.28;5018778;28;20041;-73
2024/01/25 07:19:49;;;;;;;16.60;11.60;;;;;;;4.13;100.00;99166.97;4995131;28;20033;-74
2024/01/25 07:22:18;;;;;;;18.83;12.93;;;;;;;4.14;100.00;99152.34;5018901;28;20075;-74
2024/01/25 07:24:46;;;;;;;18.93;12.97;;;;;;;4.25;100.00;99167.97;5012144;28;20083;-76
2024/01/25 07:27:14;;;;;;;24.98;13.52;;;;;;;4.19;100.00;99166.59;5010627;28;20056;-75
2024/01/25 07:29:39;;;;;;;19.00;12.35;;;;;;;3.95;100.00;99162.91;5013129;28;20037;-74
2024/01/25 07:32:05;;;;;;;21.55;12.88;;;;;;;3.93;100.00;99164.72;4999360;28;20056;-75
2024/01/25 07:34:32;;;;;;;22.17;13.27;;;;;;;3.80;100.00;99159.47;5016694;28;20038;-75
2024/01/25 07:36:58;;;;;;;22.20;14.80;;;;;;;3.92;100.00;99163.06;5011871;28;20037;-74
2024/01/25 07:39:26;;;;;;;21.63;14.25;;;;;;;3.65;100.00;99114.84;5029124;28;20510;-74
2024/01/25 07:41:51;;;;;;;24.38;15.48;;;;;;;4.03;100.00;99168.41;5012481;28;20033;-74
2024/01/25 07:44:17;;;;;;;25.85;14.88;;;;;;;3.94;100.00;99168.94;4992121;28;20041;-74
2024/01/25 07:46:45;;;;;;;24.98;14.85;;;;;;;3.89;100.00;99164.09;5014320;28;20654;-74
2024/01/25 07:49:10;;;;;;;24.40;14.60;;;;;;;3.88;100.00;99166.75;5009299;28;20065;-74
2024/01/25 07:51:36;;;;;;;23.75;14.07;;;;;;;3.74;100.00;99157.22;5000176;28;20115;-73
2024/01/25 07:54:02;;;;;;;23.20;14.13;;;;;;;3.58;100.00;99147.00;5028585;28;20112;-74
2024/01/25 07:56:27;;;;;;;23.92;15.25;;;;;;;3.49;100.00;99162.94;5016137;28;20028;-75
2024/01/25 07:58:55;;;;;;;24.02;14.55;;;;;;;3.69;100.00;99161.81;5022375;28;20056;-75
2024/01/25 08:01:21;;;;;;;21.08;14.43;;;;;;;3.63;100.00;99168.97;5000249;28;20746;-75
2024/01/25 08:03:46;;;;;;;21.77;14.93;;;;;;;3.51;100.00;99110.53;5020450;28;20041;-74
2024/01/25 08:06:12;;;;;;;26.88;15.50;;;;;;;3.88;100.00;99149.53;5021422;28;20116;-76
2024/01/25 08:08:42;;;;;;;23.52;15.02;;;;;;;3.85;100.00;99155.72;5013791;28;20554;-76
2024/01/25 08:11:10;;;;;;;22.63;14.75;;;;;;;3.90;100.00;99146.88;4998134;28;20765;-74
2024/01/25 08:13:37;;;;;;;23.00;14.48;;;;;;;3.67;100.00;99154.19;5007672;28;20048;-77
2024/01/25 08:16:03;;;;;;;21.35;14.45;;;;;;;3.66;100.00;99145.63;5015207;28;20502;-75
2024/01/25 08:18:29;;;;;;;22.02;14.93;;;;;;;3.82;100.00;99145.59;5009890;28;20038;-76
2024/01/25 08:20:55;;;;;;;22.15;14.85;;;;;;;3.52;100.00;99144.78;5015488;28;20114;-74
2024/01/25 08:23:21;;;;;;;24.58;15.45;;;;;;;3.52;100.00;99143.00;5013002;28;20045;-74
2024/01/25 08:25:46;;;;;;;25.38;15.90;;;;;;;3.53;100.00;99141.28;5014106;28;20018;-76
2024/01/25 08:28:12;;;;;;;25.95;15.40;;;;;;;3.40;100.00;99100.03;4998234;28;20033;-74
2024/01/25 08:30:37;;;;;;;23.38;15.15;;;;;;;3.72;100.00;99153.91;5028910;28;20022;-73
2024/01/25 08:33:05;;;;;;;20.48;14.73;;;;;;;3.68;100.00;99155.03;5015238;28;20037;-75
2024/01/25 08:35:30;;;;;;;23.83;16.08;;;;;;;3.66;100.00;99142.25;4994004;28;20025;-75
2024/01/25 08:38:02;;;;;;;24.27;16.40;;;;;;;3.82;100.00;99153.31;5001476;28;20514;-74
2024/01/25 08:40:28;;;;;;;25.83;14.82;;;;;;;3.84;100.00;99150.66;5014335;28;20040;-74
2024/01/25 08:42:53;;;;;;;23.92;15.73;;;;;;;3.96;100.00;99151.66;5026162;28;20030;-75
2024/01/25 08:45:18;;;;;;;25.80;15.00;;;;;;;3.88;100.00;99151.31;5017473;28;21235;-73
2024/01/25 08:47:49;;;;;;;29.45;15.57;;;;;;;3.96;100.00;99165.38;5023669;28;20040;-76
2024/01/25 08:50:14;;;;;;;24.80;14.77;;;;;;;3.81;100.00;99150.81;4994652;28;20768;-75
2024/01/25 08:52:42;;;;;;;23.25;14.10;;;;;;;3.77;100.00;99137.31;5000842;28;20030;-74
2024/01/25 08:55:10;;;;;;;23.05;14.40;;;;;;;4.02;100.00;99156.47;5025311;28;20056;-74
2024/01/25 08:57:40;;;;;;;23.40;14.60;;;;;;;4.10;100.00;99156.03;4998059;28;20409;-74
2024/01/25 09:00:15;;;;;;;23.60;13.88;;;;;;;4.15;100.00;99165.13;4995245;28;20132;-74
2024/01/25 09:02:43;;;;;;;24.33;14.05;;;;;;;3.80;100.00;99115.75;5028181;28;20037;-75
2024/01/25 09:05:11;;;;;;;20.00;13.95;;;;;;;4.04;100.00;99142.59;5007458;28;20055;-75
2024/01/25 09:07:37;;;;;;;23.25;16.92;;;;;;;4.26;100.00;99154.19;5010102;28;20038;-75
2024/01/25 09:10:04;;;;;;;23.27;14.55;;;;;;;4.27;100.00;99157.59;5011757;28;20578;-76
2024/01/25 09:12:30;;;;;;;21.77;14.75;;;;;;;4.23;100.00;99154.38;5002181;28;20120;-75
2024/01/25 09:15:00;;;;;;;22.40;15.57;;;;;;;3.87;100.00;99099.03;4992467;28;20039;-76
2024/01/25 09:17:25;;;;;;;26.73;15.18;;;;;;;4.24;100.00;99158.59;5017595;28;20041;-74
2024/01/25 09:19:51;;;;;;;20.75;15.30;;;;;;;3.97;100.00;99107.84;4986289;28;20106;-76
2024/01/25 09:22:22;;;;;;;23.05;15.10;;;;;;;4.29;100.00;99154.03;5025533;28;20076;-74
2024/01/25 09:24:47;;;;;;;26.83;17.13;;;;;;;4.37;100.00;99158.69;5005845;28;20056;-74
2024/01/25 09:27:16;;;;;;;18.60;13.95;;;;;;;4.46;100.00;99147.03;5025153;28;20105;-74
2024/01/25 09:29:44;;;;;;;21.48;14.85;;;;;;;4.51;100.00;99160.44;5011803;28;20037;-75
2024/01/25 09:32:12;;;;;;;22.10;13.52;;;;;;;4.68;100.00;99160.25;5008698;28;20022;-74
2024/01/25 09:34:38;;;;;;;21.40;13.25;;;;;;;4.46;100.00;99116.13;5006113;28;20051;-76
2024/01/25 09:37:05;;;;;;;19.00;14.10;;;;;;;4.68;100.00;99173.13;4992552;28;20519;-76
2024/01/25 09:39:35;;;;;;;19.92;13.23;;;;;;;4.59;100.00;99158.22;5012825;28;20048;-74
2024/01/25 09:42:01;;;;;;;20.42;13.70;;;;;;;4.71;100.00;99165.22;5014127;28;20030;-76
2024/01/25 09:44:28;;;;;;;20.52;12.82;;;;;;;4.74;100.00;99179.66;4993896;28;20053;-74
2024/01/25 09:46:54;;;;;;;20.45;13.88;;;;;;;4.76;100.00;99170.06;5018906;28;20048;-75
2024/01/25 09:49:21;;;;;;;19.33;13.63;;;;;;;4.79;100.00;99168.13;5012048;28;20029;-75
2024/01/25 09:51:48;;;;;;;22.80;13.73;;;;;;;4.81;100.00;99174.03;5017330;28;20046;-75
2024/01/25 09:54:13;;;;;;;22.70;14.00;;;;;;;4.65;100.00;99132.09;4995015;28;20029;-73
2024/01/25 09:56:40;;;;;;;19.50;13.27;;;;;;;5.00;100.00;99180.63;4996910;28;20037;-76
2024/01/25 09:59:06;;;;;;;18.67;13.20;;;;;;;5.04;100.00;99182.09;4992513;28;20025;-73
2024/01/25 10:01:32;;;;;;;22.48;13.82;;;;;;;4.98;100.00;99179.88;4997530;28;20490;-74
2024/01/25 10:04:02;;;;;;;20.55;13.88;;;;;;;5.06;100.00;99187.16;4991233;28;20052;-74
2024/01/25 10:06:33;;;;;;;20.00;14.30;;;;;;;5.03;100.00;99184.75;4992823;28;20029;-74
2024/01/25 10:08:58;;;;;;;21.42;14.10;;;;;;;4.85;100.00;99137.78;5004538;28;20519;-74
2024/01/25 10:11:24;;;;;;;21.00;14.23;;;;;;;5.18;100.00;99188.94;5001937;28;20705;-74
2024/01/25 10:13:50;;;;;;;18.25;13.10;;;;;;;5.32;100.00;99178.59;5011214;28;20099;-74
2024/01/25 10:16:19;;;;;;;19.02;13.05;;;;;;;5.14;100.00;99143.66;5010117;28;20044;-73
2024/01/25 10:18:46;;;;;;;18.83;13.52;;;;;;;5.57;100.00;99174.47;5000903;28;20025;-75
2024/01/25 10:21:13;;;;;;;19.25;13.85;;;;;;;5.74;100.00;99166.44;5009681;28;20416;-75
2024/01/25 10:23:39;;;;;;;26.60;21.70;;;;;;;5.84;100.00;99174.41;5034406;28;20025;-75
2024/01/25 10:26:05;;;;;;;17.50;14.23;;;;;;;5.98;100.00;99168.34;5010643;28;20037;-74
2024/01/25 10:28:31;;;;;;;20.58;14.00;;;;;;;5.92;100.00;99123.09;5025323;28;20025;-75
2024/01/25 10:31:01;;;;;;;15.30;10.80;;;;;;;6.38;100.00;99164.88;5006678;28;20051;-75
2024/01/25 10:33:27;;;;;;;11.82;8.50;;;;;;;6.64;100.00;99126.88;5010853;28;20041;-74
2024/01/25 10:35:55;;;;;;;10.57;7.18;;;;;;;7.12;100.00;99161.41;5014560;28;20511;-74
2024/01/25 10:38:21;;;;;;;11.10;8.05;;;;;;;7.10;100.00;99155.50;5008667;28;20063;-74
2024/01/25 10:40:47;;;;;;;10.52;6.70;;;;;;;7.21;100.00;99159.91;4999236;28;20490;-74
2024/01/25 10:43:15;;;;;;;12.90;6.97;;;;;;;7.33;100.00;99153.03;4994363;28;20042;-74
2024/01/25 10:45:41;;;;;;;10.82;6.68;;;;;;;7.35;100.00;99148.56;4998409;28;20048;-74
2024/01/25 10:48:07;;;;;;;11.60;6.88;;;;;;;7.45;100.00;99151.31;5013780;28;20026;-75
2024/01/25 10:50:32;;;;;;;13.27;7.65;;;;;;;7.49;100.00;99144.97;5027767;28;20163;-75
2024/01/25 10:53:00;;;;;;;11.20;7.60;;;;;;;7.60;100.00;99154.56;5000641;28;20029;-74
2024/01/25 10:55:28;;;;;;;11.73;6.72;;;;;;;7.76;100.00;99141.28;5009624;28;20057;-73
2024/01/25 10:57:54;;;;;;;12.27;7.20;;;;;;;7.75;100.00;99142.25;5018383;28;20040;-74
2024/01/25 11:00:20;;;;;;;10.82;6.43;;;;;;;7.88;100.00;99132.63;5000375;28;20033;-74
2024/01/25 11:02:46;;;;;;;11.13;6.82;;;;;;;8.11;100.00;99135.25;5017764;28;20042;-74
2024/01/25 11:05:13;;;;;;;10.73;6.35;;;;;;;8.03;100.00;99090.03;5012850;28;20022;-74
2024/01/25 11:07:45;;;;;;;10.80;6.45;;;;;;;8.38;100.00;99132.31;5003741;28;20041;-74
2024/01/25 11:10:14;;;;;;;11.95;6.88;;;;;;;8.44;100.00;99119.72;5013337;28;20120;-73
2024/01/25 11:13:15;;;;;;;12.32;8.20;;;;;;;8.60;100.00;99118.56;4992134;28;20041;-74
2024/01/25 11:15:41;;;;;;;14.20;7.97;;;;;;;9.08;100.00;99125.19;5007830;28;20173;-73
2024/01/25 11:18:08;;;;;;;15.15;7.63;;;;;;;9.40;100.00;99117.38;4994357;28;20677;-73